Time;durP1;ratioP1;P1;durP2;ratioP2;P2;SDS_P1;SDS_P2;PMS_P1;PMS_P2;Temp;Humidity;BMP_temperature;BMP_pressure;BME280_temperature;BME280_humidity;BME280_pressure;Samples;Min_cycle;Max_cycle;Signal;HPM_P1;HPM_P2
2024/04/04 00:00:09;;;;;;;5.88;1.70;;;12.20;99.90;;;;;;2090645;28;20062;-66
2024/04/04 00:01:10;;;;;;;3.17;1.10;;;12.20;99.90;;;;;;2094366;28;20028;-68
2024/04/04 00:02:14;;;;;;;4.30;1.10;;;12.20;99.90;;;;;;2093170;28;20056;-66
2024/04/04 00:03:15;;;;;;;3.88;1.27;;;12.20;99.90;;;;;;2093266;28;20482;-68
2024/04/04 00:04:15;;;;;;;6.63;1.30;;;12.20;99.90;;;;;;2082081;28;20414;-68
2024/04/04 00:05:16;;;;;;;3.30;1.15;;;12.20;99.90;;;;;;2082975;28;20021;-69
2024/04/04 00:06:17;;;;;;;6.30;1.70;;;12.20;99.90;;;;;;2095141;28;20032;-67
2024/04/04 00:07:18;;;;;;;5.20;1.63;;;12.20;99.90;;;;;;2085938;28;20064;-68
2024/04/04 00:08:18;;;;;;;5.00;1.52;;;12.20;99.90;;;;;;2084384;28;20137;-67
2024/04/04 00:09:19;;;;;;;5.18;1.10;;;12.20;99.90;;;;;;2094404;28;20024;-67
2024/04/04 00:10:19;;;;;;;5.45;1.20;;;12.10;99.90;;;;;;2092641;28;20025;-67
2024/04/04 00:11:21;;;;;;;4.95;1.55;;;12.10;99.90;;;;;;2092516;28;20103;-67
2024/04/04 00:12:25;;;;;;;4.28;1.40;;;12.10;99.90;;;;;;2093076;28;20013;-66
2024/04/04 00:13:28;;;;;;;6.78;1.70;;;12.10;99.90;;;;;;2093627;28;20071;-67
2024/04/04 00:14:29;;;;;;;9.38;1.58;;;12.10;99.90;;;;;;2092536;28;20029;-67
2024/04/04 00:15:37;;;;;;;5.30;1.20;;;12.10;99.90;;;;;;2093266;28;20096;-67
2024/04/04 00:16:41;;;;;;;7.03;1.60;;;12.10;99.90;;;;;;2091804;28;20462;-67
2024/04/04 00:17:43;;;;;;;4.55;1.52;;;12.10;99.90;;;;;;2092554;28;20032;-67
2024/04/04 00:18:46;;;;;;;9.05;1.65;;;12.00;99.90;;;;;;2093323;28;20086;-68
2024/04/04 00:19:49;;;;;;;4.00;1.20;;;12.00;99.90;;;;;;2094391;28;20036;-68
2024/04/04 00:20:53;;;;;;;6.82;1.35;;;12.00;99.90;;;;;;2093902;28;20626;-68
2024/04/04 00:21:53;;;;;;;4.45;1.20;;;12.00;99.90;;;;;;2092676;28;20506;-66
2024/04/04 00:22:54;;;;;;;3.30;1.20;;;12.00;99.90;;;;;;2085273;28;20025;-67
2024/04/04 00:23:56;;;;;;;4.15;1.45;;;12.00;99.90;;;;;;2085308;28;20033;-67
2024/04/04 00:24:57;;;;;;;5.40;1.08;;;12.00;99.90;;;;;;2093183;28;20028;-67
2024/04/04 00:25:57;;;;;;;4.53;1.30;;;12.00;99.90;;;;;;2093653;28;20202;-67
2024/04/04 00:26:58;;;;;;;3.50;1.10;;;12.00;99.90;;;;;;2093351;28;20028;-67
2024/04/04 00:27:59;;;;;;;5.85;1.70;;;12.00;99.90;;;;;;2093087;28;20029;-66
2024/04/04 00:29:00;;;;;;;4.55;1.42;;;12.00;99.90;;;;;;2090719;28;20128;-67
2024/04/04 00:30:03;;;;;;;5.97;1.63;;;12.00;99.90;;;;;;2092715;28;20044;-68
2024/04/04 00:31:03;;;;;;;4.25;1.42;;;12.00;99.90;;;;;;2094450;28;20741;-67
2024/04/04 00:32:04;;;;;;;6.70;1.50;;;12.00;99.90;;;;;;2091388;28;20694;-67
2024/04/04 00:33:07;;;;;;;6.00;1.40;;;11.90;99.90;;;;;;2092382;28;20115;-67
2024/04/04 00:34:11;;;;;;;5.63;1.48;;;11.90;99.90;;;;;;2094031;28;20039;-68
2024/04/04 00:35:15;;;;;;;6.78;1.50;;;11.90;99.90;;;;;;2093494;28;20023;-67
2024/04/04 00:36:16;;;;;;;7.22;1.50;;;11.90;99.90;;;;;;2095977;28;20388;-66
2024/04/04 00:37:22;;;;;;;3.75;1.02;;;11.90;99.90;;;;;;2094867;28;20051;-67
2024/04/04 00:38:23;;;;;;;11.10;1.38;;;11.90;99.90;;;;;;2095322;28;20907;-67
2024/04/04 00:39:24;;;;;;;4.00;1.38;;;11.90;99.90;;;;;;2095775;28;20392;-67
2024/04/04 00:40:24;;;;;;;7.82;2.22;;;11.90;99.90;;;;;;2092980;28;20074;-68
2024/04/04 00:41:28;;;;;;;4.60;1.40;;;11.80;99.90;;;;;;2094836;28;20028;-67
2024/04/04 00:42:29;;;;;;;6.38;1.30;;;11.80;99.90;;;;;;2093955;28;20033;-66
2024/04/04 00:43:30;;;;;;;6.75;1.60;;;11.80;99.90;;;;;;2095539;28;20100;-66
2024/04/04 00:44:33;;;;;;;6.25;1.63;;;11.90;99.90;;;;;;2093223;28;20068;-69
2024/04/04 00:45:35;;;;;;;5.13;1.45;;;11.80;99.90;;;;;;2093349;28;20021;-66
2024/04/04 00:46:36;;;;;;;4.03;1.23;;;11.80;99.90;;;;;;2095766;28;20753;-66
2024/04/04 00:47:37;;;;;;;6.20;1.60;;;11.80;99.90;;;;;;2094627;28;20029;-67
2024/04/04 00:48:37;;;;;;;8.63;1.60;;;11.80;99.90;;;;;;2095938;28;20024;-67
2024/04/04 00:49:41;;;;;;;7.25;1.20;;;11.80;99.90;;;;;;2094893;28;20090;-68
2024/04/04 00:50:42;;;;;;;4.97;1.35;;;11.80;99.90;;;;;;2094648;28;20033;-66
2024/04/04 00:51:43;;;;;;;4.80;1.52;;;11.80;99.90;;;;;;2094030;28;20037;-67
2024/04/04 00:52:44;;;;;;;3.70;1.42;;;11.80;99.90;;;;;;2094635;28;20035;-68
2024/04/04 00:53:45;;;;;;;7.05;1.50;;;11.80;99.90;;;;;;2093285;28;20097;-69
2024/04/04 00:54:47;;;;;;;4.75;1.52;;;11.80;99.90;;;;;;2093498;28;20054;-70
2024/04/04 00:55:48;;;;;;;7.13;1.50;;;11.80;99.90;;;;;;2093097;28;20020;-66
2024/04/04 00:56:49;;;;;;;5.38;1.40;;;11.80;99.90;;;;;;2093571;28;20074;-66
2024/04/04 00:57:52;;;;;;;4.68;1.13;;;11.80;99.90;;;;;;2086236;28;20171;-67
2024/04/04 00:58:53;;;;;;;5.20;1.60;;;11.80;99.90;;;;;;2086420;28;20063;-66
2024/04/04 00:59:54;;;;;;;5.70;1.30;;;11.70;99.90;;;;;;2087145;28;20094;-66
2024/04/04 01:00:55;;;;;;;5.75;1.48;;;11.70;99.90;;;;;;2086680;28;20032;-66
2024/04/04 01:01:55;;;;;;;2.85;1.38;;;11.70;99.90;;;;;;2094011;28;20465;-68
2024/04/04 01:02:56;;;;;;;4.53;1.00;;;11.80;99.90;;;;;;2094885;28;20024;-68
2024/04/04 01:03:56;;;;;;;8.15;1.10;;;11.70;99.90;;;;;;2094923;28;20032;-67
2024/04/04 01:04:57;;;;;;;4.22;1.00;;;11.70;99.90;;;;;;2094500;28;20024;-66
2024/04/04 01:05:58;;;;;;;4.78;1.30;;;11.70;99.90;;;;;;2094001;28;20064;-67
2024/04/04 01:06:59;;;;;;;5.32;1.33;;;11.70;99.90;;;;;;2092845;28;20107;-67
2024/04/04 01:08:00;;;;;;;5.65;1.50;;;11.70;99.90;;;;;;2096121;28;20458;-67
2024/04/04 01:09:01;;;;;;;3.83;1.20;;;11.70;99.90;;;;;;2095544;28;20389;-67
2024/04/04 01:10:09;;;;;;;4.95;1.17;;;11.70;99.90;;;;;;2097378;28;20024;-67
2024/04/04 01:11:14;;;;;;;5.22;1.52;;;11.70;99.90;;;;;;2095653;28;20090;-66
2024/04/04 01:12:15;;;;;;;8.23;1.38;;;11.70;99.90;;;;;;2094526;28;20033;-68
2024/04/04 01:13:16;;;;;;;6.32;1.40;;;11.70;99.90;;;;;;2094342;28;20067;-68
2024/04/04 01:14:16;;;;;;;4.13;1.50;;;11.70;99.90;;;;;;2093673;28;20461;-67
2024/04/04 01:15:17;;;;;;;5.20;1.30;;;11.70;99.90;;;;;;2094680;28;20028;-67
2024/04/04 01:16:19;;;;;;;5.18;1.42;;;11.70;99.90;;;;;;2094836;28;20052;-68
2024/04/04 01:17:20;;;;;;;3.25;0.90;;;11.70;99.90;;;;;;2093329;28;20033;-66
2024/04/04 01:18:21;;;;;;;4.82;1.15;;;11.70;99.90;;;;;;2095232;28;20059;-67
2024/04/04 01:19:24;;;;;;;8.15;1.85;;;11.70;99.90;;;;;;2091507;28;20021;-65
2024/04/04 01:20:25;;;;;;;5.13;1.02;;;11.70;99.90;;;;;;2095799;28;20413;-68
2024/04/04 01:21:26;;;;;;;5.45;1.77;;;11.70;99.90;;;;;;2093359;28;20504;-65
2024/04/04 01:22:27;;;;;;;4.07;1.42;;;11.70;99.90;;;;;;2092812;28;20453;-68
2024/04/04 01:23:28;;;;;;;4.47;1.30;;;11.70;99.90;;;;;;2097421;28;20055;-68
2024/04/04 01:24:29;;;;;;;6.22;1.40;;;11.60;99.90;;;;;;2095553;28;20028;-67
2024/04/04 01:25:30;;;;;;;5.18;1.10;;;11.70;99.90;;;;;;2091326;28;20074;-67
2024/04/04 01:26:30;;;;;;;5.20;1.23;;;11.70;99.90;;;;;;2096466;28;20028;-69
2024/04/04 01:27:31;;;;;;;7.22;1.55;;;11.70;99.90;;;;;;2095486;28;20025;-69
2024/04/04 01:28:32;;;;;;;7.10;1.88;;;11.70;99.90;;;;;;2094603;28;20021;-69
2024/04/04 01:29:32;;;;;;;5.45;1.20;;;11.70;99.90;;;;;;2092475;28;20021;-69
2024/04/04 01:30:33;;;;;;;3.00;1.35;;;11.70;99.90;;;;;;2088433;28;20398;-69
2024/04/04 01:31:33;;;;;;;3.00;1.20;;;11.70;99.90;;;;;;2088032;28;20036;-69
2024/04/04 01:32:35;;;;;;;4.68;1.20;;;11.70;99.90;;;;;;2096022;28;20036;-70
2024/04/04 01:33:35;;;;;;;6.05;1.30;;;11.70;99.90;;;;;;2094317;28;20067;-69
2024/04/04 01:34:36;;;;;;;4.22;1.40;;;11.70;99.90;;;;;;2093664;28;21329;-70
2024/04/04 01:35:36;;;;;;;6.60;1.20;;;11.70;99.90;;;;;;2095285;28;20044;-69
2024/04/04 01:36:37;;;;;;;7.05;1.85;;;11.70;99.90;;;;;;2095046;28;20023;-69
2024/04/04 01:37:38;;;;;;;7.22;1.98;;;11.70;99.90;;;;;;2093751;28;20189;-69
2024/04/04 01:38:41;;;;;;;8.38;1.40;;;11.70;99.90;;;;;;2094236;28;20021;-68
2024/04/04 01:39:42;;;;;;;5.22;1.33;;;11.70;99.90;;;;;;2084355;28;20033;-68
2024/04/04 01:40:43;;;;;;;9.82;1.80;;;11.80;99.90;;;;;;2080260;28;20038;-69
2024/04/04 01:41:46;;;;;;;4.28;1.00;;;11.80;99.90;;;;;;2086181;28;20067;-69
2024/04/04 01:42:46;;;;;;;3.70;1.20;;;11.80;99.90;;;;;;2087018;28;20375;-68
2024/04/04 01:43:47;;;;;;;7.30;1.63;;;11.80;99.90;;;;;;2093181;28;20025;-68
2024/04/04 01:44:47;;;;;;;4.30;1.67;;;11.80;99.90;;;;;;2083817;28;20079;-69
2024/04/04 01:45:48;;;;;;;4.55;1.35;;;11.80;99.90;;;;;;2084658;28;20088;-70
2024/04/04 01:46:49;;;;;;;6.97;2.25;;;11.80;99.90;;;;;;2088125;28;20009;-68
2024/04/04 01:47:50;;;;;;;5.15;1.20;;;11.80;99.90;;;;;;2091549;28;20098;-68
2024/04/04 01:48:51;;;;;;;3.75;1.05;;;11.80;99.90;;;;;;2094826;28;20024;-69
2024/04/04 01:49:51;;;;;;;5.07;1.50;;;11.80;99.90;;;;;;2084807;28;20187;-68
2024/04/04 01:50:52;;;;;;;5.75;1.15;;;11.80;99.90;;;;;;2085586;28;20021;-68
2024/04/04 01:51:52;;;;;;;4.28;1.30;;;11.80;99.90;;;;;;2094729;28;20028;-68
2024/04/04 01:52:53;;;;;;;8.30;1.42;;;11.80;99.90;;;;;;2092498;28;20037;-68
2024/04/04 01:53:53;;;;;;;3.65;1.25;;;11.80;99.90;;;;;;2093115;28;20020;-71
2024/04/04 01:54:54;;;;;;;5.45;1.55;;;11.90;99.90;;;;;;2086648;28;20033;-68
2024/04/04 01:56:01;;;;;;;7.70;1.30;;;11.80;99.90;;;;;;2084557;28;20025;-69
2024/04/04 01:57:01;;;;;;;4.22;1.13;;;11.90;99.90;;;;;;2093192;28;20397;-68
2024/04/04 01:58:02;;;;;;;5.15;1.80;;;11.80;99.90;;;;;;2086733;28;20041;-69
2024/04/04 01:59:03;;;;;;;4.72;1.27;;;11.90;99.90;;;;;;2087901;28;20033;-68
2024/04/04 02:00:03;;;;;;;5.03;1.10;;;11.90;99.90;;;;;;2094373;28;20669;-68
2024/04/04 02:01:04;;;;;;;6.25;1.75;;;11.90;99.90;;;;;;2094252;28;20437;-68
2024/04/04 02:02:05;;;;;;;5.50;0.90;;;11.90;99.90;;;;;;2093392;28;20025;-69
2024/04/04 02:03:05;;;;;;;4.22;1.05;;;11.90;99.90;;;;;;2095396;28;20025;-68
2024/04/04 02:04:06;;;;;;;4.13;1.05;;;12.00;99.90;;;;;;2092681;28;20035;-68
2024/04/04 02:05:06;;;;;;;6.07;1.55;;;12.00;99.90;;;;;;2094663;28;20025;-68
2024/04/04 02:06:07;;;;;;;6.90;1.33;;;12.00;99.90;;;;;;2092585;28;20025;-68
2024/04/04 02:07:07;;;;;;;6.78;1.27;;;12.00;99.90;;;;;;2094415;28;20032;-68
2024/04/04 02:08:08;;;;;;;4.35;1.20;;;12.00;99.90;;;;;;2093883;28;20837;-68
2024/04/04 02:09:09;;;;;;;2.42;0.80;;;12.00;99.90;;;;;;2092626;28;20031;-68
2024/04/04 02:10:10;;;;;;;3.47;1.20;;;12.00;99.90;;;;;;2090521;28;20058;-68
2024/04/04 02:11:11;;;;;;;6.50;1.10;;;12.00;99.90;;;;;;2095256;28;20542;-68
2024/04/04 02:12:11;;;;;;;7.85;1.40;;;12.00;99.90;;;;;;2094021;28;20021;-68
2024/04/04 02:13:12;;;;;;;5.53;1.40;;;12.00;99.90;;;;;;2095066;28;20479;-68
2024/04/04 02:14:12;;;;;;;3.92;1.33;;;12.10;99.90;;;;;;2084182;28;20021;-68
2024/04/04 02:15:14;;;;;;;3.72;0.93;;;12.10;99.90;;;;;;2086007;28;20025;-68
2024/04/04 02:16:16;;;;;;;3.58;0.98;;;12.10;99.90;;;;;;2094142;28;20020;-68
2024/04/04 02:17:17;;;;;;;7.60;1.88;;;12.10;99.90;;;;;;2095588;28;20389;-68
2024/04/04 02:18:19;;;;;;;4.10;1.23;;;12.10;99.90;;;;;;2093583;28;20024;-68
2024/04/04 02:19:20;;;;;;;5.05;1.48;;;12.10;99.90;;;;;;2094848;28;20459;-68
2024/04/04 02:20:22;;;;;;;3.20;1.00;;;12.10;99.90;;;;;;2094165;28;20025;-68
2024/04/04 02:21:22;;;;;;;6.65;1.60;;;12.10;99.90;;;;;;2094023;28;20053;-68
2024/04/04 02:22:23;;;;;;;4.82;1.13;;;12.10;99.90;;;;;;2093065;28;20074;-68
2024/04/04 02:23:23;;;;;;;4.78;1.25;;;12.20;99.90;;;;;;2092399;28;20012;-68
2024/04/04 02:24:24;;;;;;;4.72;1.20;;;12.20;99.90;;;;;;2095221;28;20036;-68
2024/04/04 02:25:27;;;;;;;5.22;1.33;;;12.20;99.90;;;;;;2092903;28;20021;-68
2024/04/04 02:26:28;;;;;;;4.40;0.98;;;12.20;99.90;;;;;;2094156;28;20036;-68
2024/04/04 02:27:31;;;;;;;6.15;1.20;;;12.20;99.90;;;;;;2094928;28;20099;-68
2024/04/04 02:28:31;;;;;;;3.22;1.13;;;12.20;99.90;;;;;;2095209;28;20029;-68
2024/04/04 02:29:32;;;;;;;3.53;1.20;;;12.20;99.90;;;;;;2093973;28;20054;-68
2024/04/04 02:30:32;;;;;;;5.85;1.42;;;12.30;99.90;;;;;;2093469;28;20123;-68
2024/04/04 02:31:33;;;;;;;5.75;1.95;;;12.20;99.90;;;;;;2094351;28;20039;-68
2024/04/04 02:32:33;;;;;;;3.58;1.25;;;12.20;99.90;;;;;;2095062;28;20029;-68
2024/04/04 02:33:35;;;;;;;4.40;1.08;;;12.30;99.90;;;;;;2093637;28;20035;-68
2024/04/04 02:34:36;;;;;;;3.67;1.10;;;12.30;99.90;;;;;;2092098;28;20067;-68
2024/04/04 02:35:36;;;;;;;4.07;1.60;;;12.30;99.90;;;;;;2093200;28;20659;-68
2024/04/04 02:36:37;;;;;;;3.45;0.98;;;12.30;99.90;;;;;;2093060;28;20031;-68
2024/04/04 02:37:37;;;;;;;4.00;1.30;;;12.30;99.90;;;;;;2093906;28;20079;-67
2024/04/04 02:38:38;;;;;;;6.03;1.40;;;12.30;99.90;;;;;;2093895;28;20025;-68
2024/04/04 02:39:38;;;;;;;2.90;0.82;;;12.30;99.90;;;;;;2093354;28;20031;-69
2024/04/04 02:40:40;;;;;;;4.15;1.13;;;12.30;99.90;;;;;;2094240;28;20032;-68
2024/04/04 02:41:41;;;;;;;4.75;1.10;;;12.30;99.90;;;;;;2095321;28;20040;-68
2024/04/04 02:42:42;;;;;;;5.00;1.80;;;12.30;99.90;;;;;;2093524;28;20481;-68
2024/04/04 02:43:42;;;;;;;9.13;1.95;;;12.30;99.90;;;;;;2092541;28;20128;-68
2024/04/04 02:44:43;;;;;;;5.47;1.73;;;12.30;99.90;;;;;;2092746;28;20082;-69
2024/04/04 02:45:44;;;;;;;4.85;1.77;;;12.30;99.90;;;;;;2094692;28;20025;-69
2024/04/04 02:46:47;;;;;;;4.90;1.90;;;12.40;99.90;;;;;;2094099;28;20105;-69
2024/04/04 02:47:48;;;;;;;5.15;1.90;;;12.40;99.90;;;;;;2095203;28;20031;-68
2024/04/04 02:48:49;;;;;;;6.78;2.40;;;12.40;99.90;;;;;;2094977;28;20116;-69
2024/04/04 02:49:50;;;;;;;4.63;2.30;;;12.30;99.90;;;;;;2091942;28;20020;-69
2024/04/04 02:50:57;;;;;;;6.28;2.53;;;12.40;99.90;;;;;;2093230;28;20129;-68
2024/04/04 02:51:58;;;;;;;7.13;2.78;;;12.40;99.90;;;;;;2094769;28;20036;-69
2024/04/04 02:52:58;;;;;;;7.25;2.38;;;12.40;99.90;;;;;;2093333;28;20104;-69
2024/04/04 02:53:59;;;;;;;5.60;2.80;;;12.40;99.90;;;;;;2093317;28;20123;-69
2024/04/04 02:55:00;;;;;;;6.38;2.70;;;12.40;99.90;;;;;;2094245;28;20074;-68
2024/04/04 02:56:00;;;;;;;6.80;2.90;;;12.40;99.90;;;;;;2094395;28;20151;-69
2024/04/04 02:57:01;;;;;;;7.68;2.58;;;12.40;99.90;;;;;;2093123;28;20059;-69
2024/04/04 02:58:01;;;;;;;7.97;3.00;;;12.40;99.90;;;;;;2093544;28;20038;-69
2024/04/04 02:59:02;;;;;;;8.15;2.50;;;12.40;99.90;;;;;;2093669;28;20067;-69
2024/04/04 03:00:03;;;;;;;6.05;2.40;;;12.40;99.90;;;;;;2095441;28;20073;-69
2024/04/04 03:01:04;;;;;;;7.45;3.03;;;12.40;99.90;;;;;;2093985;28;20476;-69
2024/04/04 03:02:04;;;;;;;4.65;2.55;;;12.40;99.90;;;;;;2095545;28;20373;-69
2024/04/04 03:03:05;;;;;;;5.82;2.90;;;12.40;99.90;;;;;;2094194;28;20020;-69
2024/04/04 03:04:07;;;;;;;4.00;2.25;;;12.40;99.90;;;;;;2094104;28;20033;-69
2024/04/04 03:05:07;;;;;;;6.53;2.70;;;12.50;99.90;;;;;;2091720;28;20021;-69
2024/04/04 03:06:08;;;;;;;6.85;2.78;;;12.50;99.90;;;;;;2092941;28;20055;-69
2024/04/04 03:07:08;;;;;;;4.80;2.33;;;12.50;99.90;;;;;;2093953;28;20033;-69
2024/04/04 03:08:09;;;;;;;5.03;2.60;;;12.50;99.90;;;;;;2095087;28;20415;-68
2024/04/04 03:09:11;;;;;;;5.45;2.13;;;12.50;99.90;;;;;;2092932;28;20029;-69
2024/04/04 03:10:11;;;;;;;6.50;2.20;;;12.50;99.90;;;;;;2093071;28;20427;-69
2024/04/04 03:11:12;;;;;;;4.10;2.17;;;12.50;99.90;;;;;;2093930;28;20029;-69
2024/04/04 03:12:12;;;;;;;5.25;2.15;;;12.50;99.90;;;;;;2094040;28;20151;-69
2024/04/04 03:13:13;;;;;;;7.13;2.00;;;12.50;99.90;;;;;;2094690;28;21036;-69
2024/04/04 03:14:14;;;;;;;4.05;2.20;;;12.50;99.90;;;;;;2094142;28;20059;-69
2024/04/04 03:15:14;;;;;;;3.92;2.15;;;12.50;99.90;;;;;;2093268;28;20016;-68
2024/04/04 03:16:15;;;;;;;4.18;1.52;;;12.50;99.90;;;;;;2094213;28;20503;-69
2024/04/04 03:17:15;;;;;;;4.55;2.15;;;12.50;99.90;;;;;;2076263;28;20052;-69
2024/04/04 03:18:16;;;;;;;5.97;1.75;;;12.50;99.90;;;;;;2077060;28;20032;-69
2024/04/04 03:19:16;;;;;;;4.65;2.35;;;12.50;99.90;;;;;;2093402;28;20394;-69
2024/04/04 03:20:17;;;;;;;3.22;1.73;;;12.50;99.90;;;;;;2092693;28;20021;-69
2024/04/04 03:21:20;;;;;;;3.53;1.50;;;12.50;99.90;;;;;;2093187;28;20070;-68
2024/04/04 03:22:21;;;;;;;3.88;1.27;;;12.50;99.90;;;;;;2094738;28;20477;-68
2024/04/04 03:23:21;;;;;;;6.55;1.65;;;12.60;99.90;;;;;;2093122;28;20058;-69
2024/04/04 03:24:22;;;;;;;2.72;1.77;;;12.50;99.90;;;;;;2095491;28;20787;-69
2024/04/04 03:25:22;;;;;;;2.88;1.50;;;12.50;99.90;;;;;;2093152;28;20036;-68
2024/04/04 03:26:23;;;;;;;4.82;1.73;;;12.50;99.90;;;;;;2093857;28;20591;-69
2024/04/04 03:27:23;;;;;;;4.82;2.08;;;12.60;99.90;;;;;;2093181;28;20025;-70
2024/04/04 03:28:24;;;;;;;3.28;1.30;;;12.60;99.90;;;;;;2094760;28;20087;-68
2024/04/04 03:29:25;;;;;;;2.65;1.20;;;12.60;99.90;;;;;;2084255;28;20024;-68
2024/04/04 03:30:26;;;;;;;3.10;1.10;;;12.60;99.90;;;;;;2084931;28;20028;-69
2024/04/04 03:31:27;;;;;;;2.65;0.98;;;12.60;99.90;;;;;;2094529;28;20021;-69
2024/04/04 03:32:27;;;;;;;4.15;1.40;;;12.60;99.90;;;;;;2094744;28;20029;-69
2024/04/04 03:33:28;;;;;;;3.92;1.20;;;12.60;99.90;;;;;;2092952;28;20036;-68
2024/04/04 03:34:28;;;;;;;3.17;1.00;;;12.60;99.90;;;;;;2092763;28;20378;-69
2024/04/04 03:35:29;;;;;;;4.88;1.23;;;12.60;99.90;;;;;;2096346;28;20042;-68
2024/04/04 03:36:29;;;;;;;3.53;1.38;;;12.60;99.90;;;;;;2092401;28;20501;-68
2024/04/04 03:37:31;;;;;;;5.03;1.48;;;12.60;99.90;;;;;;2092628;28;20039;-69
2024/04/04 03:38:32;;;;;;;1.58;0.75;;;12.60;99.90;;;;;;2094229;28;20112;-68
2024/04/04 03:39:32;;;;;;;4.18;1.15;;;12.60;99.90;;;;;;2093550;28;20500;-68
2024/04/04 03:40:36;;;;;;;3.75;1.05;;;12.60;99.90;;;;;;2094712;28;20042;-69
2024/04/04 03:41:37;;;;;;;4.13;1.13;;;12.50;99.90;;;;;;2084275;28;20072;-69
2024/04/04 03:42:37;;;;;;;3.17;1.20;;;12.50;99.90;;;;;;2093029;28;20032;-68
2024/04/04 03:43:38;;;;;;;3.58;0.90;;;12.50;99.90;;;;;;2092478;28;20358;-69
2024/04/04 03:44:38;;;;;;;2.08;0.70;;;12.50;99.90;;;;;;2091976;28;20028;-69
2024/04/04 03:45:39;;;;;;;1.48;0.70;;;12.50;99.90;;;;;;2092182;28;20496;-69
2024/04/04 03:46:40;;;;;;;2.55;0.90;;;12.50;99.90;;;;;;2093703;28;20035;-69
2024/04/04 03:47:40;;;;;;;3.30;0.90;;;12.50;99.90;;;;;;2093771;28;20025;-69
2024/04/04 03:48:42;;;;;;;1.52;0.75;;;12.50;99.90;;;;;;2094958;28;20116;-70
2024/04/04 03:49:42;;;;;;;4.40;0.77;;;12.50;99.90;;;;;;2094117;28;20071;-69
2024/04/04 03:50:43;;;;;;;1.85;1.00;;;12.50;99.90;;;;;;2093595;28;20065;-69
2024/04/04 03:51:43;;;;;;;2.15;0.93;;;12.50;99.90;;;;;;2092831;28;20036;-69
2024/04/04 03:52:44;;;;;;;2.60;1.13;;;12.50;99.90;;;;;;2092757;28;20060;-69
2024/04/04 03:53:44;;;;;;;2.78;0.85;;;12.50;99.90;;;;;;2091964;28;20033;-69
2024/04/04 03:54:45;;;;;;;2.67;0.90;;;12.50;99.90;;;;;;2093105;28;20033;-69
2024/04/04 03:55:45;;;;;;;3.42;0.95;;;12.50;99.90;;;;;;2092148;28;20110;-69
2024/04/04 03:56:46;;;;;;;3.50;1.45;;;12.50;99.90;;;;;;2093784;28;20086;-69
2024/04/04 03:57:47;;;;;;;2.90;1.10;;;12.50;99.90;;;;;;2092470;28;20642;-69
2024/04/04 03:58:47;;;;;;;4.82;1.20;;;12.50;99.90;;;;;;2092764;28;20024;-69
2024/04/04 03:59:48;;;;;;;2.53;1.10;;;12.50;99.90;;;;;;2093304;28;20123;-69
2024/04/04 04:00:49;;;;;;;4.13;0.90;;;12.50;99.90;;;;;;2093731;28;20060;-69
2024/04/04 04:01:50;;;;;;;2.88;1.17;;;12.50;99.90;;;;;;2093430;28;20016;-69
2024/04/04 04:02:51;;;;;;;2.65;1.05;;;12.50;99.90;;;;;;2092900;28;20028;-69
2024/04/04 04:03:51;;;;;;;2.75;0.88;;;12.50;99.90;;;;;;2092895;28;20028;-69
2024/04/04 04:04:52;;;;;;;2.53;1.02;;;12.50;99.90;;;;;;2094000;28;20024;-69
2024/04/04 04:05:53;;;;;;;2.80;0.68;;;12.50;99.90;;;;;;2092656;28;20063;-69
2024/04/04 04:06:53;;;;;;;4.68;0.82;;;12.60;99.90;;;;;;2094869;28;20035;-70
2024/04/04 04:07:54;;;;;;;2.38;0.98;;;12.50;99.90;;;;;;2091468;28;20441;-69
2024/04/04 04:08:54;;;;;;;3.75;1.30;;;12.50;99.90;;;;;;2095040;28;20029;-69
2024/04/04 04:09:55;;;;;;;3.83;1.00;;;12.50;99.90;;;;;;2095586;28;20028;-69
2024/04/04 04:10:55;;;;;;;3.35;1.05;;;12.50;99.90;;;;;;2094472;28;20424;-70
2024/04/04 04:11:56;;;;;;;2.25;0.95;;;12.50;99.90;;;;;;2092293;28;20036;-69
2024/04/04 04:12:59;;;;;;;2.03;0.65;;;12.50;99.90;;;;;;2093930;28;20063;-69
2024/04/04 04:14:01;;;;;;;3.13;0.98;;;12.50;99.90;;;;;;2093043;28;20028;-69
2024/04/04 04:15:01;;;;;;;2.47;0.70;;;12.50;99.90;;;;;;2093219;28;20403;-69
2024/04/04 04:16:02;;;;;;;3.10;1.00;;;12.50;99.90;;;;;;2093146;28;20033;-69
2024/04/04 04:17:03;;;;;;;3.70;1.10;;;12.50;99.90;;;;;;2094786;28;20020;-69
2024/04/04 04:18:03;;;;;;;3.88;1.10;;;12.50;99.90;;;;;;2094306;28;20025;-69
2024/04/04 04:19:04;;;;;;;2.60;0.93;;;12.50;99.90;;;;;;2087686;28;20024;-69
2024/04/04 04:21:17;;;;;;;3.03;1.30;;;12.50;99.90;;;;;;2088084;28;20071;-69
2024/04/04 04:21:25;;;;;;;1.85;0.90;;;12.50;99.90;;;;;;2095591;28;20033;-70
2024/04/04 04:22:26;;;;;;;3.28;1.08;;;12.40;99.90;;;;;;2095250;28;20063;-69
2024/04/04 04:23:26;;;;;;;5.22;1.42;;;12.50;99.90;;;;;;2093289;28;20405;-69
2024/04/04 04:24:27;;;;;;;2.92;1.23;;;12.40;99.90;;;;;;2095746;28;20074;-69
2024/04/04 04:25:27;;;;;;;4.25;1.15;;;12.40;99.90;;;;;;2093047;28;20029;-69
2024/04/04 04:26:30;;;;;;;2.20;0.93;;;12.40;99.90;;;;;;2095213;28;20020;-69
2024/04/04 04:27:30;;;;;;;3.08;0.88;;;12.40;99.90;;;;;;2095909;28;20108;-69
2024/04/04 04:28:31;;;;;;;6.43;1.67;;;12.40;99.90;;;;;;2095571;28;20021;-69
2024/04/04 04:29:32;;;;;;;3.03;1.00;;;12.40;99.90;;;;;;2096107;28;20053;-69
2024/04/04 04:30:32;;;;;;;3.15;1.15;;;12.40;99.90;;;;;;2096087;28;20045;-69
2024/04/04 04:31:35;;;;;;;3.00;1.00;;;12.40;99.90;;;;;;2093404;28;20024;-69
2024/04/04 04:32:35;;;;;;;2.67;0.90;;;12.40;99.90;;;;;;2096038;28;20021;-69
2024/04/04 04:33:36;;;;;;;2.15;0.68;;;12.40;99.90;;;;;;2094822;28;20025;-69
2024/04/04 04:34:36;;;;;;;2.75;0.80;;;12.40;99.90;;;;;;2095668;28;20067;-69
2024/04/04 04:35:37;;;;;;;5.65;1.05;;;12.40;99.90;;;;;;2096283;28;20376;-68
2024/04/04 04:36:52;;;;;;;4.20;0.73;;;12.40;99.90;;;;;;2094200;28;20017;-70
2024/04/04 04:37:53;;;;;;;3.90;1.30;;;12.40;99.90;;;;;;2095788;28;20427;-70
2024/04/04 04:38:54;;;;;;;3.10;1.10;;;12.40;99.90;;;;;;2094445;28;20036;-70
2024/04/04 04:39:54;;;;;;;3.83;1.35;;;12.40;99.90;;;;;;2092728;28;20029;-70
2024/04/04 04:41:03;;;;;;;2.25;1.45;;;12.40;99.90;;;;;;2095939;28;20037;-70
2024/04/04 04:42:05;;;;;;;4.07;1.60;;;12.40;99.90;;;;;;2093959;28;20041;-70
2024/04/04 04:43:05;;;;;;;2.00;0.95;;;12.40;99.90;;;;;;2095510;28;20520;-70
2024/04/04 04:44:06;;;;;;;2.20;0.85;;;12.40;99.90;;;;;;2093777;28;20396;-70
2024/04/04 04:45:06;;;;;;;1.67;1.00;;;12.40;99.90;;;;;;2095262;28;20102;-70
2024/04/04 04:46:07;;;;;;;1.50;0.88;;;12.40;99.90;;;;;;2093275;28;20029;-70
2024/04/04 04:47:07;;;;;;;4.03;1.17;;;12.40;99.90;;;;;;2095745;28;20461;-71
2024/04/04 04:48:08;;;;;;;4.43;1.15;;;12.40;99.90;;;;;;2094245;28;20020;-70
2024/04/04 04:49:09;;;;;;;3.28;1.10;;;12.40;99.90;;;;;;2094612;28;20052;-70
2024/04/04 04:50:10;;;;;;;3.88;1.35;;;12.40;99.90;;;;;;2094585;28;20024;-70
2024/04/04 04:51:11;;;;;;;6.07;1.42;;;12.40;99.90;;;;;;2095810;28;20063;-70
2024/04/04 04:52:12;;;;;;;6.75;1.50;;;12.40;99.90;;;;;;2095923;28;20040;-70
2024/04/04 04:53:13;;;;;;;2.42;1.00;;;12.40;99.90;;;;;;2093379;28;20021;-70
2024/04/04 04:54:13;;;;;;;2.15;0.90;;;12.40;99.90;;;;;;2096812;28;20093;-70
2024/04/04 04:55:14;;;;;;;2.28;1.15;;;12.40;99.90;;;;;;2095470;28;20536;-70
2024/04/04 04:56:15;;;;;;;4.50;1.45;;;12.40;99.90;;;;;;2096269;28;20024;-70
2024/04/04 04:57:15;;;;;;;2.63;1.10;;;12.40;99.90;;;;;;2094761;28;20020;-70
2024/04/04 04:58:18;;;;;;;4.18;1.20;;;12.40;99.90;;;;;;2092562;28;20032;-70
2024/04/04 04:59:19;;;;;;;3.95;1.63;;;12.40;99.90;;;;;;2094952;28;20028;-70
2024/04/04 05:00:22;;;;;;;3.95;1.50;;;12.50;99.90;;;;;;2094752;28;20068;-70
2024/04/04 05:01:24;;;;;;;3.85;1.00;;;12.50;99.90;;;;;;2095263;28;20048;-70
2024/04/04 05:02:24;;;;;;;2.90;1.40;;;12.50;99.90;;;;;;2094808;28;20422;-70
2024/04/04 05:03:25;;;;;;;3.88;1.10;;;12.50;99.90;;;;;;2094143;28;20056;-70
2024/04/04 05:04:26;;;;;;;2.78;1.23;;;12.50;99.90;;;;;;2095512;28;20028;-70
2024/04/04 05:05:27;;;;;;;1.83;0.90;;;12.50;99.90;;;;;;2085972;28;20108;-71
2024/04/04 05:06:28;;;;;;;2.60;1.00;;;12.50;99.90;;;;;;2086143;28;20524;-70
2024/04/04 05:07:29;;;;;;;2.55;1.00;;;12.50;99.90;;;;;;2096419;28;20066;-70
2024/04/04 05:08:29;;;;;;;3.40;1.15;;;12.50;99.90;;;;;;2093418;28;20086;-69
2024/04/04 05:09:30;;;;;;;3.17;1.10;;;12.50;99.90;;;;;;2095476;28;20062;-70
2024/04/04 05:10:31;;;;;;;2.75;1.00;;;12.50;99.90;;;;;;2094685;28;20033;-70
2024/04/04 05:11:31;;;;;;;3.05;1.23;;;12.50;99.90;;;;;;2094499;28;20032;-69
2024/04/04 05:12:32;;;;;;;2.97;0.93;;;12.50;99.90;;;;;;2093294;28;20449;-70
2024/04/04 05:13:33;;;;;;;2.28;1.13;;;12.50;99.90;;;;;;2093027;28;20017;-70
2024/04/04 05:14:33;;;;;;;2.08;0.85;;;12.60;99.90;;;;;;2093784;28;20044;-69
2024/04/04 05:15:43;;;;;;;3.53;1.23;;;12.60;99.90;;;;;;2095063;28;20024;-70
2024/04/04 05:16:45;;;;;;;2.92;1.00;;;12.60;99.90;;;;;;2094167;28;20558;-70
2024/04/04 05:17:45;;;;;;;2.65;1.10;;;12.60;99.90;;;;;;2095864;28;20484;-69
2024/04/04 05:18:46;;;;;;;2.83;1.05;;;12.60;99.90;;;;;;2093983;28;20449;-70